North Cascades National Park, WA

2:17 PM PDT on October 01, 2014 (GMT -0700)
Newhalem Helistop | Change Station
CLOSE
Current Station
Personal Weather Station
Location: Newhalem, WA
Elevation: 504 ft
Nearby Weather Stations

Elev 504 ft 48.67 °N, 121.25 °W | Updated 2 seconds ago

Mostly Cloudy
Mostly Cloudy
58.6 °F
Feels Like 58.6 °F
N
1.0
Wind Variable Wind from West
Gusts 5.0 mph

Today
High -- | Low -- °F
--% Chance of Precip.
Yesterday
High -- | Low -- °F
Precip. -- in
7:05 AM 6:44 PM
Waxing Crescent, 51% visible
Pressure 30.21 in
Visibility 10.0 miles
Clouds Few 3100 ft
Mostly Cloudy 4600 ft
Overcast 6500 ft
Dew Point 53 °F
Humidity 82%
Rainfall 0.00 in
Snow Depth 0 in , 0 in , 0 in
UV 1.1 out of 12
Pollen 1.30 out of 12
PM2.5 Good
Flu Activity Not available.
METAR KAWO 012055Z AUTO 34005KT 10SM FEW031 BKN046 OVC065 16/09 A3021 RMK AO1 57010

More Conditions Fewer Conditions

Pressure 30.21 in
Visibility 10.0 miles
Clouds Few 3100 ft
Mostly Cloudy 4600 ft
Overcast 6500 ft
Dew Point 53 °F
Humidity 82%
Rainfall 0.00 in
Snow Depth 0 in , 0 in , 0 in
UV 1.1 out of 12
Pollen 1.30 out of 12
PM2.5 Good
Flu Activity Not available.
METAR KAWO 012055Z AUTO 34005KT 10SM FEW031 BKN046 OVC065 16/09 A3021 RMK AO1 57010

More Conditions Fewer Conditions

10-Day Weather Forecast

Almanac

Astronomy

Oct. 01, 2014 Rise Set
Actual Time 7:05 AM PDT 6:44 PM PDT
Civil Twilight 6:33 AM PDT 7:15 PM PDT
Nautical Twilight 5:57 AM PDT 7:51 PM PDT
Astronomical Twilight 5:20 AM PDT 8:28 PM PDT
Moon 2:31 PM PDT No Moon Set
Length of Visible Light 12h 41m
Length of Day
11h 39m
Tomorrow will be 3m 30s shorter.
Waxing Crescent, 51% of the Moon is Illuminated
Today
Waxing Crescent
Oct 8
Full
Oct 15
Last Quarter
Oct 23
New
Oct 30
First Quarter

Today's Extremes

State Highs State Lows

Community

WunderPhotos

Upload Photos

1,758,058 photos uploaded!

WunderBlogs® & News

By Dr. Jeff Masters
Director of Meteorology, Weather Underground
By Kari Strenfel
Meteorologist, Weather Underground
By Christopher C. Burt
Weather Historian, Weather Underground
October 1, 2014
October 1, 2014
October 1, 2014

Nearby

Air Quality

  Air Quality AQ Index Pollutant
Yesterday Good
PM2.5
Current Good
PM2.5
Wednesday Good
PM2.5
Thursday Good
PM2.5
Friday Good
PM2.5
Saturday Good
PM2.5

Snow Depth

Station Depth Elevation
Wells Creek 0 in 4200 ft
Sheep Canyon 0 in 4030 ft
Green Lake 0 in 6000 ft
Sourdough Gulch 0 in 4000 ft
Stevens Pass 0 in 4070 ft

Earthquake Activity

City Distance Mag. Time & Date
No recent earthquake activity has been reported nearby.
Minimum magnitude displayed is 2.5.

Coastal Water Temperatures

Place Temperature
No Stations Reporting

Nearby Weather Stations